sensor_id;sensor_type;location;lat;lon;timestamp;P1;durP1;ratioP1;P2;durP2;ratioP2
71108;SDS011;59614;51.012;-1.648;2023-06-14T00:00:36;12.88;;;6.22;;
71108;SDS011;59614;51.012;-1.648;2023-06-14T00:03:09;12.30;;;5.88;;
71108;SDS011;59614;51.012;-1.648;2023-06-14T00:05:36;12.30;;;6.05;;
71108;SDS011;59614;51.012;-1.648;2023-06-14T00:08:06;9.57;;;5.72;;
71108;SDS011;59614;51.012;-1.648;2023-06-14T00:10:33;13.80;;;5.80;;
71108;SDS011;59614;51.012;-1.648;2023-06-14T00:13:00;8.65;;;5.32;;
71108;SDS011;59614;51.012;-1.648;2023-06-14T00:15:26;9.27;;;5.60;;
71108;SDS011;59614;51.012;-1.648;2023-06-14T00:17:53;12.35;;;5.88;;
71108;SDS011;59614;51.012;-1.648;2023-06-14T00:20:19;13.70;;;5.72;;
71108;SDS011;59614;51.012;-1.648;2023-06-14T00:22:45;11.38;;;6.10;;
71108;SDS011;59614;51.012;-1.648;2023-06-14T00:25:11;9.35;;;5.97;;
71108;SDS011;59614;51.012;-1.648;2023-06-14T00:27:36;12.00;;;6.40;;
71108;SDS011;59614;51.012;-1.648;2023-06-14T00:30:02;10.45;;;6.05;;
71108;SDS011;59614;51.012;-1.648;2023-06-14T00:32:27;10.43;;;6.00;;
71108;SDS011;59614;51.012;-1.648;2023-06-14T00:34:53;10.68;;;5.75;;
71108;SDS011;59614;51.012;-1.648;2023-06-14T00:37:18;10.18;;;6.22;;
71108;SDS011;59614;51.012;-1.648;2023-06-14T00:39:44;10.43;;;6.07;;
71108;SDS011;59614;51.012;-1.648;2023-06-14T00:42:09;11.35;;;6.32;;
71108;SDS011;59614;51.012;-1.648;2023-06-14T00:44:35;9.40;;;6.07;;
71108;SDS011;59614;51.012;-1.648;2023-06-14T00:47:00;9.25;;;6.20;;
71108;SDS011;59614;51.012;-1.648;2023-06-14T00:49:26;8.95;;;5.85;;
71108;SDS011;59614;51.012;-1.648;2023-06-14T00:51:53;11.27;;;5.95;;
71108;SDS011;59614;51.012;-1.648;2023-06-14T00:54:19;8.23;;;6.00;;
71108;SDS011;59614;51.012;-1.648;2023-06-14T00:56:44;13.57;;;5.60;;
71108;SDS011;59614;51.012;-1.648;2023-06-14T00:59:10;12.80;;;5.90;;
71108;SDS011;59614;51.012;-1.648;2023-06-14T01:01:36;9.63;;;6.07;;
71108;SDS011;59614;51.012;-1.648;2023-06-14T01:04:02;8.77;;;6.30;;
71108;SDS011;59614;51.012;-1.648;2023-06-14T01:09:10;13.43;;;6.78;;
71108;SDS011;59614;51.012;-1.648;2023-06-14T01:11:54;9.57;;;6.10;;
71108;SDS011;59614;51.012;-1.648;2023-06-14T01:14:41;14.30;;;6.13;;
71108;SDS011;59614;51.012;-1.648;2023-06-14T01:17:07;9.73;;;6.30;;
71108;SDS011;59614;51.012;-1.648;2023-06-14T01:19:40;8.90;;;5.63;;
71108;SDS011;59614;51.012;-1.648;2023-06-14T01:22:07;12.43;;;6.30;;
71108;SDS011;59614;51.012;-1.648;2023-06-14T01:24:33;10.02;;;5.70;;
71108;SDS011;59614;51.012;-1.648;2023-06-14T01:26:59;11.18;;;5.78;;
71108;SDS011;59614;51.012;-1.648;2023-06-14T01:29:26;10.40;;;5.90;;
71108;SDS011;59614;51.012;-1.648;2023-06-14T01:31:57;9.43;;;6.03;;
71108;SDS011;59614;51.012;-1.648;2023-06-14T01:34:23;8.98;;;5.78;;
71108;SDS011;59614;51.012;-1.648;2023-06-14T01:36:49;11.60;;;5.63;;
71108;SDS011;59614;51.012;-1.648;2023-06-14T01:39:15;10.27;;;5.35;;
71108;SDS011;59614;51.012;-1.648;2023-06-14T01:41:42;10.50;;;5.60;;
71108;SDS011;59614;51.012;-1.648;2023-06-14T01:44:10;12.27;;;5.40;;
71108;SDS011;59614;51.012;-1.648;2023-06-14T01:46:38;13.63;;;5.60;;
71108;SDS011;59614;51.012;-1.648;2023-06-14T01:49:05;9.02;;;5.40;;
71108;SDS011;59614;51.012;-1.648;2023-06-14T01:51:31;11.30;;;5.22;;
71108;SDS011;59614;51.012;-1.648;2023-06-14T01:53:56;11.27;;;5.68;;
71108;SDS011;59614;51.012;-1.648;2023-06-14T01:56:22;11.82;;;5.30;;
71108;SDS011;59614;51.012;-1.648;2023-06-14T01:58:48;12.05;;;5.10;;
71108;SDS011;59614;51.012;-1.648;2023-06-14T02:01:14;8.75;;;5.07;;
71108;SDS011;59614;51.012;-1.648;2023-06-14T02:03:41;8.95;;;4.90;;
71108;SDS011;59614;51.012;-1.648;2023-06-14T02:06:07;11.27;;;4.93;;
71108;SDS011;59614;51.012;-1.648;2023-06-14T02:08:32;11.23;;;5.00;;
71108;SDS011;59614;51.012;-1.648;2023-06-14T02:10:58;12.82;;;5.68;;
71108;SDS011;59614;51.012;-1.648;2023-06-14T02:13:23;12.15;;;4.88;;
71108;SDS011;59614;51.012;-1.648;2023-06-14T02:15:49;6.97;;;4.90;;
71108;SDS011;59614;51.012;-1.648;2023-06-14T02:18:19;8.43;;;4.45;;
71108;SDS011;59614;51.012;-1.648;2023-06-14T02:20:46;9.70;;;4.87;;
71108;SDS011;59614;51.012;-1.648;2023-06-14T02:23:12;10.35;;;4.80;;
71108;SDS011;59614;51.012;-1.648;2023-06-14T02:25:37;8.05;;;5.00;;
71108;SDS011;59614;51.012;-1.648;2023-06-14T02:28:04;7.20;;;4.90;;
71108;SDS011;59614;51.012;-1.648;2023-06-14T02:30:30;14.90;;;4.95;;
71108;SDS011;59614;51.012;-1.648;2023-06-14T02:32:56;10.35;;;5.20;;
71108;SDS011;59614;51.012;-1.648;2023-06-14T02:35:21;10.88;;;4.50;;
71108;SDS011;59614;51.012;-1.648;2023-06-14T02:37:49;14.27;;;4.78;;
71108;SDS011;59614;51.012;-1.648;2023-06-14T02:40:16;12.52;;;5.25;;
71108;SDS011;59614;51.012;-1.648;2023-06-14T02:42:41;10.70;;;4.75;;
71108;SDS011;59614;51.012;-1.648;2023-06-14T02:45:07;8.13;;;4.72;;
71108;SDS011;59614;51.012;-1.648;2023-06-14T02:47:33;8.90;;;4.75;;
71108;SDS011;59614;51.012;-1.648;2023-06-14T02:49:58;8.48;;;4.53;;
71108;SDS011;59614;51.012;-1.648;2023-06-14T02:52:24;8.63;;;4.75;;
71108;SDS011;59614;51.012;-1.648;2023-06-14T02:54:50;8.05;;;4.68;;
71108;SDS011;59614;51.012;-1.648;2023-06-14T02:57:15;9.75;;;4.50;;
71108;SDS011;59614;51.012;-1.648;2023-06-14T02:59:41;12.05;;;4.60;;
71108;SDS011;59614;51.012;-1.648;2023-06-14T03:02:06;7.70;;;4.70;;
71108;SDS011;59614;51.012;-1.648;2023-06-14T03:04:32;12.38;;;4.72;;
71108;SDS011;59614;51.012;-1.648;2023-06-14T03:07:02;9.10;;;5.00;;
71108;SDS011;59614;51.012;-1.648;2023-06-14T03:09:33;8.95;;;4.45;;
71108;SDS011;59614;51.012;-1.648;2023-06-14T03:12:03;9.80;;;4.65;;
71108;SDS011;59614;51.012;-1.648;2023-06-14T03:14:29;8.70;;;4.50;;
71108;SDS011;59614;51.012;-1.648;2023-06-14T03:16:55;11.60;;;4.70;;
71108;SDS011;59614;51.012;-1.648;2023-06-14T03:19:22;9.07;;;4.93;;
71108;SDS011;59614;51.012;-1.648;2023-06-14T03:21:48;8.10;;;4.38;;
71108;SDS011;59614;51.012;-1.648;2023-06-14T03:24:14;6.53;;;4.68;;
71108;SDS011;59614;51.012;-1.648;2023-06-14T03:26:41;6.97;;;4.63;;
71108;SDS011;59614;51.012;-1.648;2023-06-14T03:29:07;7.65;;;4.70;;
71108;SDS011;59614;51.012;-1.648;2023-06-14T03:31:33;7.65;;;4.70;;
71108;SDS011;59614;51.012;-1.648;2023-06-14T03:34:00;7.18;;;4.57;;
71108;SDS011;59614;51.012;-1.648;2023-06-14T03:36:28;9.80;;;5.00;;
71108;SDS011;59614;51.012;-1.648;2023-06-14T03:38:54;10.90;;;5.30;;
71108;SDS011;59614;51.012;-1.648;2023-06-14T03:41:20;6.75;;;4.47;;
71108;SDS011;59614;51.012;-1.648;2023-06-14T03:43:46;8.40;;;4.90;;
71108;SDS011;59614;51.012;-1.648;2023-06-14T03:46:11;11.93;;;5.22;;
71108;SDS011;59614;51.012;-1.648;2023-06-14T03:48:36;7.25;;;4.60;;
71108;SDS011;59614;51.012;-1.648;2023-06-14T03:51:03;7.75;;;4.55;;
71108;SDS011;59614;51.012;-1.648;2023-06-14T03:53:29;8.73;;;4.90;;
71108;SDS011;59614;51.012;-1.648;2023-06-14T03:55:54;6.90;;;4.18;;
71108;SDS011;59614;51.012;-1.648;2023-06-14T03:58:20;6.13;;;4.57;;
71108;SDS011;59614;51.012;-1.648;2023-06-14T04:00:45;7.13;;;4.55;;
71108;SDS011;59614;51.012;-1.648;2023-06-14T04:03:12;8.57;;;4.65;;
71108;SDS011;59614;51.012;-1.648;2023-06-14T04:05:38;9.10;;;4.43;;
71108;SDS011;59614;51.012;-1.648;2023-06-14T04:08:07;10.32;;;4.70;;
71108;SDS011;59614;51.012;-1.648;2023-06-14T04:10:34;8.10;;;4.47;;
71108;SDS011;59614;51.012;-1.648;2023-06-14T04:12:59;9.18;;;4.25;;
71108;SDS011;59614;51.012;-1.648;2023-06-14T04:15:25;11.88;;;4.20;;
71108;SDS011;59614;51.012;-1.648;2023-06-14T04:17:52;9.35;;;4.28;;
71108;SDS011;59614;51.012;-1.648;2023-06-14T04:20:22;7.70;;;4.43;;
71108;SDS011;59614;51.012;-1.648;2023-06-14T04:22:49;9.05;;;4.38;;
71108;SDS011;59614;51.012;-1.648;2023-06-14T04:25:15;9.85;;;4.40;;
71108;SDS011;59614;51.012;-1.648;2023-06-14T04:27:41;7.60;;;4.05;;
71108;SDS011;59614;51.012;-1.648;2023-06-14T04:30:07;9.00;;;4.30;;
71108;SDS011;59614;51.012;-1.648;2023-06-14T04:32:33;6.95;;;4.20;;
71108;SDS011;59614;51.012;-1.648;2023-06-14T04:35:03;10.52;;;4.30;;
71108;SDS011;59614;51.012;-1.648;2023-06-14T04:37:28;5.72;;;3.90;;
71108;SDS011;59614;51.012;-1.648;2023-06-14T04:39:55;7.20;;;4.00;;
71108;SDS011;59614;51.012;-1.648;2023-06-14T04:42:21;6.45;;;3.83;;
71108;SDS011;59614;51.012;-1.648;2023-06-14T04:44:55;7.00;;;3.80;;
71108;SDS011;59614;51.012;-1.648;2023-06-14T04:47:21;8.77;;;4.00;;
71108;SDS011;59614;51.012;-1.648;2023-06-14T04:49:46;10.23;;;4.03;;
71108;SDS011;59614;51.012;-1.648;2023-06-14T04:52:12;9.85;;;4.00;;
71108;SDS011;59614;51.012;-1.648;2023-06-14T04:54:38;8.40;;;3.60;;
71108;SDS011;59614;51.012;-1.648;2023-06-14T04:57:07;7.68;;;3.80;;
71108;SDS011;59614;51.012;-1.648;2023-06-14T04:59:32;6.47;;;3.42;;
71108;SDS011;59614;51.012;-1.648;2023-06-14T05:02:00;7.07;;;3.70;;
71108;SDS011;59614;51.012;-1.648;2023-06-14T05:04:26;6.68;;;3.85;;
71108;SDS011;59614;51.012;-1.648;2023-06-14T05:06:53;9.50;;;4.05;;
71108;SDS011;59614;51.012;-1.648;2023-06-14T05:09:19;9.60;;;3.72;;
71108;SDS011;59614;51.012;-1.648;2023-06-14T05:11:45;11.35;;;4.18;;
71108;SDS011;59614;51.012;-1.648;2023-06-14T05:14:11;11.68;;;3.67;;
71108;SDS011;59614;51.012;-1.648;2023-06-14T05:16:36;6.25;;;3.75;;
71108;SDS011;59614;51.012;-1.648;2023-06-14T05:19:02;10.75;;;3.67;;
71108;SDS011;59614;51.012;-1.648;2023-06-14T05:21:29;6.65;;;3.53;;
71108;SDS011;59614;51.012;-1.648;2023-06-14T05:23:55;8.73;;;3.58;;
71108;SDS011;59614;51.012;-1.648;2023-06-14T05:26:21;6.80;;;3.55;;
71108;SDS011;59614;51.012;-1.648;2023-06-14T05:28:48;8.68;;;3.50;;
71108;SDS011;59614;51.012;-1.648;2023-06-14T05:31:14;8.85;;;3.78;;
71108;SDS011;59614;51.012;-1.648;2023-06-14T05:33:40;7.22;;;3.58;;
71108;SDS011;59614;51.012;-1.648;2023-06-14T05:36:05;7.05;;;3.50;;
71108;SDS011;59614;51.012;-1.648;2023-06-14T05:38:31;10.98;;;3.17;;
71108;SDS011;59614;51.012;-1.648;2023-06-14T05:40:56;7.97;;;3.80;;
71108;SDS011;59614;51.012;-1.648;2023-06-14T05:43:21;6.15;;;3.42;;
71108;SDS011;59614;51.012;-1.648;2023-06-14T05:45:47;7.75;;;3.60;;
71108;SDS011;59614;51.012;-1.648;2023-06-14T05:48:12;6.05;;;3.30;;
71108;SDS011;59614;51.012;-1.648;2023-06-14T05:50:38;7.63;;;3.38;;
71108;SDS011;59614;51.012;-1.648;2023-06-14T05:53:03;7.05;;;3.28;;
71108;SDS011;59614;51.012;-1.648;2023-06-14T05:55:28;6.05;;;3.10;;
71108;SDS011;59614;51.012;-1.648;2023-06-14T05:57:54;7.07;;;3.20;;
71108;SDS011;59614;51.012;-1.648;2023-06-14T06:00:19;10.07;;;3.80;;
71108;SDS011;59614;51.012;-1.648;2023-06-14T06:02:45;9.10;;;3.60;;
71108;SDS011;59614;51.012;-1.648;2023-06-14T06:05:12;5.17;;;3.37;;
71108;SDS011;59614;51.012;-1.648;2023-06-14T06:07:38;6.03;;;3.15;;
71108;SDS011;59614;51.012;-1.648;2023-06-14T06:10:09;5.95;;;3.13;;
71108;SDS011;59614;51.012;-1.648;2023-06-14T06:12:35;6.07;;;3.75;;
71108;SDS011;59614;51.012;-1.648;2023-06-14T06:15:01;6.80;;;3.05;;
71108;SDS011;59614;51.012;-1.648;2023-06-14T06:17:26;7.47;;;3.30;;
71108;SDS011;59614;51.012;-1.648;2023-06-14T06:19:51;5.88;;;3.38;;
71108;SDS011;59614;51.012;-1.648;2023-06-14T06:22:17;8.80;;;3.55;;
71108;SDS011;59614;51.012;-1.648;2023-06-14T06:24:42;6.45;;;3.30;;
71108;SDS011;59614;51.012;-1.648;2023-06-14T06:27:08;11.27;;;3.55;;
71108;SDS011;59614;51.012;-1.648;2023-06-14T06:29:34;7.13;;;3.20;;
71108;SDS011;59614;51.012;-1.648;2023-06-14T06:32:00;6.82;;;3.30;;
71108;SDS011;59614;51.012;-1.648;2023-06-14T06:34:25;11.68;;;3.70;;
71108;SDS011;59614;51.012;-1.648;2023-06-14T06:36:51;7.47;;;3.22;;
71108;SDS011;59614;51.012;-1.648;2023-06-14T06:39:16;5.82;;;3.53;;
71108;SDS011;59614;51.012;-1.648;2023-06-14T06:41:42;6.63;;;3.20;;
71108;SDS011;59614;51.012;-1.648;2023-06-14T06:44:07;7.45;;;3.30;;
71108;SDS011;59614;51.012;-1.648;2023-06-14T06:46:34;7.32;;;3.33;;
71108;SDS011;59614;51.012;-1.648;2023-06-14T06:49:04;6.55;;;3.40;;
71108;SDS011;59614;51.012;-1.648;2023-06-14T06:51:30;6.80;;;3.30;;
71108;SDS011;59614;51.012;-1.648;2023-06-14T06:53:55;8.60;;;2.97;;
71108;SDS011;59614;51.012;-1.648;2023-06-14T06:56:21;7.05;;;3.15;;
71108;SDS011;59614;51.012;-1.648;2023-06-14T06:58:50;9.85;;;3.20;;
71108;SDS011;59614;51.012;-1.648;2023-06-14T07:01:16;11.73;;;3.55;;
71108;SDS011;59614;51.012;-1.648;2023-06-14T07:03:42;7.53;;;3.28;;
71108;SDS011;59614;51.012;-1.648;2023-06-14T07:06:08;8.05;;;3.40;;
71108;SDS011;59614;51.012;-1.648;2023-06-14T07:08:34;6.75;;;3.20;;
71108;SDS011;59614;51.012;-1.648;2023-06-14T07:10:59;6.85;;;3.38;;
71108;SDS011;59614;51.012;-1.648;2023-06-14T07:13:25;8.10;;;3.53;;
71108;SDS011;59614;51.012;-1.648;2023-06-14T07:15:50;6.38;;;3.40;;
71108;SDS011;59614;51.012;-1.648;2023-06-14T07:20:43;5.65;;;2.95;;
71108;SDS011;59614;51.012;-1.648;2023-06-14T07:23:09;10.05;;;3.83;;
71108;SDS011;59614;51.012;-1.648;2023-06-14T07:25:34;15.88;;;3.25;;
71108;SDS011;59614;51.012;-1.648;2023-06-14T07:28:00;8.68;;;3.35;;
71108;SDS011;59614;51.012;-1.648;2023-06-14T07:30:25;9.50;;;3.20;;
71108;SDS011;59614;51.012;-1.648;2023-06-14T07:32:52;9.23;;;3.33;;
71108;SDS011;59614;51.012;-1.648;2023-06-14T07:35:18;9.20;;;3.63;;
71108;SDS011;59614;51.012;-1.648;2023-06-14T07:37:44;9.85;;;3.58;;
71108;SDS011;59614;51.012;-1.648;2023-06-14T07:40:11;8.13;;;3.30;;
71108;SDS011;59614;51.012;-1.648;2023-06-14T07:42:37;9.43;;;3.65;;
71108;SDS011;59614;51.012;-1.648;2023-06-14T07:45:03;7.70;;;3.58;;
71108;SDS011;59614;51.012;-1.648;2023-06-14T07:47:29;5.22;;;2.95;;
71108;SDS011;59614;51.012;-1.648;2023-06-14T07:49:55;9.38;;;3.17;;
71108;SDS011;59614;51.012;-1.648;2023-06-14T07:52:20;8.10;;;3.17;;
71108;SDS011;59614;51.012;-1.648;2023-06-14T07:54:45;6.65;;;3.38;;
71108;SDS011;59614;51.012;-1.648;2023-06-14T07:57:11;7.32;;;3.05;;
71108;SDS011;59614;51.012;-1.648;2023-06-14T07:59:36;5.75;;;2.83;;
71108;SDS011;59614;51.012;-1.648;2023-06-14T08:02:02;7.07;;;3.20;;
71108;SDS011;59614;51.012;-1.648;2023-06-14T08:04:27;5.68;;;3.05;;
71108;SDS011;59614;51.012;-1.648;2023-06-14T08:06:53;9.70;;;2.97;;
71108;SDS011;59614;51.012;-1.648;2023-06-14T08:09:18;12.98;;;3.47;;
71108;SDS011;59614;51.012;-1.648;2023-06-14T08:11:44;7.38;;;3.40;;
71108;SDS011;59614;51.012;-1.648;2023-06-14T08:14:09;8.10;;;3.05;;
71108;SDS011;59614;51.012;-1.648;2023-06-14T08:16:35;7.25;;;3.15;;
71108;SDS011;59614;51.012;-1.648;2023-06-14T08:19:00;9.02;;;3.15;;
71108;SDS011;59614;51.012;-1.648;2023-06-14T08:21:26;6.65;;;3.40;;
71108;SDS011;59614;51.012;-1.648;2023-06-14T08:23:54;7.45;;;3.20;;
71108;SDS011;59614;51.012;-1.648;2023-06-14T08:26:19;8.40;;;3.45;;
71108;SDS011;59614;51.012;-1.648;2023-06-14T08:28:45;6.10;;;3.20;;
71108;SDS011;59614;51.012;-1.648;2023-06-14T08:31:11;8.80;;;3.28;;
71108;SDS011;59614;51.012;-1.648;2023-06-14T08:33:37;6.55;;;3.38;;
71108;SDS011;59614;51.012;-1.648;2023-06-14T08:36:04;11.43;;;3.03;;
71108;SDS011;59614;51.012;-1.648;2023-06-14T08:38:30;6.85;;;3.20;;
71108;SDS011;59614;51.012;-1.648;2023-06-14T08:40:56;8.43;;;3.33;;
71108;SDS011;59614;51.012;-1.648;2023-06-14T08:43:23;7.57;;;3.13;;
71108;SDS011;59614;51.012;-1.648;2023-06-14T08:45:48;7.28;;;2.90;;
71108;SDS011;59614;51.012;-1.648;2023-06-14T08:48:22;8.88;;;3.15;;
71108;SDS011;59614;51.012;-1.648;2023-06-14T08:50:51;9.40;;;3.47;;
71108;SDS011;59614;51.012;-1.648;2023-06-14T08:53:26;6.82;;;3.22;;
71108;SDS011;59614;51.012;-1.648;2023-06-14T08:55:53;9.05;;;3.28;;
71108;SDS011;59614;51.012;-1.648;2023-06-14T08:58:20;7.93;;;3.17;;
71108;SDS011;59614;51.012;-1.648;2023-06-14T09:00:49;12.07;;;3.58;;
71108;SDS011;59614;51.012;-1.648;2023-06-14T09:03:15;8.77;;;3.63;;
71108;SDS011;59614;51.012;-1.648;2023-06-14T09:05:40;6.20;;;4.00;;
71108;SDS011;59614;51.012;-1.648;2023-06-14T09:08:06;7.15;;;3.63;;
71108;SDS011;59614;51.012;-1.648;2023-06-14T09:10:32;7.97;;;3.55;;
71108;SDS011;59614;51.012;-1.648;2023-06-14T09:13:00;8.85;;;3.58;;
71108;SDS011;59614;51.012;-1.648;2023-06-14T09:15:26;10.55;;;4.32;;
71108;SDS011;59614;51.012;-1.648;2023-06-14T09:17:52;10.50;;;4.40;;
71108;SDS011;59614;51.012;-1.648;2023-06-14T09:20:18;6.30;;;4.15;;
71108;SDS011;59614;51.012;-1.648;2023-06-14T09:22:44;8.07;;;3.80;;
71108;SDS011;59614;51.012;-1.648;2023-06-14T09:25:09;14.32;;;5.68;;
71108;SDS011;59614;51.012;-1.648;2023-06-14T09:27:37;7.72;;;3.60;;
71108;SDS011;59614;51.012;-1.648;2023-06-14T09:30:05;8.00;;;3.63;;
71108;SDS011;59614;51.012;-1.648;2023-06-14T09:32:37;11.13;;;4.00;;
71108;SDS011;59614;51.012;-1.648;2023-06-14T09:35:05;7.05;;;3.65;;
71108;SDS011;59614;51.012;-1.648;2023-06-14T09:37:31;11.43;;;5.72;;
71108;SDS011;59614;51.012;-1.648;2023-06-14T09:39:58;9.68;;;4.10;;
71108;SDS011;59614;51.012;-1.648;2023-06-14T09:42:24;6.72;;;3.80;;
71108;SDS011;59614;51.012;-1.648;2023-06-14T09:44:54;8.23;;;3.60;;
71108;SDS011;59614;51.012;-1.648;2023-06-14T09:47:21;7.88;;;3.50;;
71108;SDS011;59614;51.012;-1.648;2023-06-14T09:49:48;10.05;;;3.90;;
71108;SDS011;59614;51.012;-1.648;2023-06-14T09:52:17;9.68;;;3.70;;
71108;SDS011;59614;51.012;-1.648;2023-06-14T09:54:44;8.05;;;3.72;;
71108;SDS011;59614;51.012;-1.648;2023-06-14T09:57:21;8.13;;;3.80;;
71108;SDS011;59614;51.012;-1.648;2023-06-14T09:59:47;10.20;;;4.30;;
71108;SDS011;59614;51.012;-1.648;2023-06-14T10:02:20;8.05;;;4.30;;
71108;SDS011;59614;51.012;-1.648;2023-06-14T10:04:57;7.50;;;4.20;;
71108;SDS011;59614;51.012;-1.648;2023-06-14T10:08:19;13.88;;;3.95;;
71108;SDS011;59614;51.012;-1.648;2023-06-14T10:10:25;8.43;;;4.00;;
71108;SDS011;59614;51.012;-1.648;2023-06-14T10:12:50;11.82;;;3.70;;
71108;SDS011;59614;51.012;-1.648;2023-06-14T10:15:19;7.88;;;4.10;;
71108;SDS011;59614;51.012;-1.648;2023-06-14T10:18:10;11.60;;;4.25;;
71108;SDS011;59614;51.012;-1.648;2023-06-14T10:21:01;8.43;;;3.53;;
71108;SDS011;59614;51.012;-1.648;2023-06-14T10:23:33;6.90;;;3.47;;
71108;SDS011;59614;51.012;-1.648;2023-06-14T10:26:03;11.27;;;4.28;;
71108;SDS011;59614;51.012;-1.648;2023-06-14T10:28:29;9.77;;;4.00;;
71108;SDS011;59614;51.012;-1.648;2023-06-14T10:33:31;10.25;;;4.65;;
71108;SDS011;59614;51.012;-1.648;2023-06-14T10:41:52;7.03;;;3.72;;
71108;SDS011;59614;51.012;-1.648;2023-06-14T10:49:19;10.82;;;4.35;;
71108;SDS011;59614;51.012;-1.648;2023-06-14T10:51:46;11.50;;;4.20;;
71108;SDS011;59614;51.012;-1.648;2023-06-14T10:54:21;8.73;;;4.40;;
71108;SDS011;59614;51.012;-1.648;2023-06-14T10:56:53;9.30;;;4.38;;
71108;SDS011;59614;51.012;-1.648;2023-06-14T10:59:20;11.25;;;4.25;;
71108;SDS011;59614;51.012;-1.648;2023-06-14T11:04:20;13.98;;;4.70;;
71108;SDS011;59614;51.012;-1.648;2023-06-14T11:12:21;10.05;;;4.03;;
71108;SDS011;59614;51.012;-1.648;2023-06-14T11:14:48;7.72;;;4.25;;
71108;SDS011;59614;51.012;-1.648;2023-06-14T11:17:14;11.77;;;4.55;;
71108;SDS011;59614;51.012;-1.648;2023-06-14T11:19:39;11.73;;;4.53;;
71108;SDS011;59614;51.012;-1.648;2023-06-14T11:22:05;8.68;;;4.20;;
71108;SDS011;59614;51.012;-1.648;2023-06-14T11:24:32;13.90;;;4.90;;
71108;SDS011;59614;51.012;-1.648;2023-06-14T11:29:23;11.43;;;4.17;;
71108;SDS011;59614;51.012;-1.648;2023-06-14T11:31:48;13.88;;;4.65;;
71108;SDS011;59614;51.012;-1.648;2023-06-14T11:34:14;11.13;;;4.53;;
71108;SDS011;59614;51.012;-1.648;2023-06-14T11:36:40;7.93;;;4.40;;
71108;SDS011;59614;51.012;-1.648;2023-06-14T11:39:06;11.47;;;4.50;;
71108;SDS011;59614;51.012;-1.648;2023-06-14T11:41:37;14.15;;;4.70;;
71108;SDS011;59614;51.012;-1.648;2023-06-14T11:44:04;14.80;;;4.95;;
71108;SDS011;59614;51.012;-1.648;2023-06-14T11:48:56;14.00;;;5.33;;
71108;SDS011;59614;51.012;-1.648;2023-06-14T11:51:21;13.68;;;5.03;;
71108;SDS011;59614;51.012;-1.648;2023-06-14T11:53:47;14.38;;;4.82;;
71108;SDS011;59614;51.012;-1.648;2023-06-14T11:56:13;10.80;;;4.80;;
71108;SDS011;59614;51.012;-1.648;2023-06-14T11:58:38;17.38;;;5.60;;
71108;SDS011;59614;51.012;-1.648;2023-06-14T12:01:04;13.52;;;5.10;;
71108;SDS011;59614;51.012;-1.648;2023-06-14T12:03:30;13.63;;;5.05;;
71108;SDS011;59614;51.012;-1.648;2023-06-14T12:06:05;13.17;;;5.30;;
71108;SDS011;59614;51.012;-1.648;2023-06-14T12:08:35;19.80;;;5.20;;
71108;SDS011;59614;51.012;-1.648;2023-06-14T12:11:14;16.88;;;5.38;;
71108;SDS011;59614;51.012;-1.648;2023-06-14T12:13:40;10.48;;;4.50;;
71108;SDS011;59614;51.012;-1.648;2023-06-14T12:16:07;10.70;;;4.80;;
71108;SDS011;59614;51.012;-1.648;2023-06-14T12:20:59;10.45;;;4.97;;
71108;SDS011;59614;51.012;-1.648;2023-06-14T12:26:23;11.05;;;5.05;;
71108;SDS011;59614;51.012;-1.648;2023-06-14T12:28:52;9.90;;;5.22;;
71108;SDS011;59614;51.012;-1.648;2023-06-14T12:31:17;10.35;;;5.47;;
71108;SDS011;59614;51.012;-1.648;2023-06-14T12:33:43;19.67;;;4.82;;
71108;SDS011;59614;51.012;-1.648;2023-06-14T12:36:10;9.57;;;5.10;;
71108;SDS011;59614;51.012;-1.648;2023-06-14T12:38:36;11.97;;;4.77;;
71108;SDS011;59614;51.012;-1.648;2023-06-14T12:41:02;11.13;;;4.90;;
71108;SDS011;59614;51.012;-1.648;2023-06-14T12:43:29;13.68;;;4.85;;
71108;SDS011;59614;51.012;-1.648;2023-06-14T12:45:54;13.47;;;5.23;;
71108;SDS011;59614;51.012;-1.648;2023-06-14T12:48:20;13.37;;;4.60;;
71108;SDS011;59614;51.012;-1.648;2023-06-14T12:50:46;10.40;;;4.40;;
71108;SDS011;59614;51.012;-1.648;2023-06-14T12:53:11;15.50;;;4.50;;
71108;SDS011;59614;51.012;-1.648;2023-06-14T12:55:37;12.90;;;4.90;;
71108;SDS011;59614;51.012;-1.648;2023-06-14T12:58:02;13.20;;;5.10;;
71108;SDS011;59614;51.012;-1.648;2023-06-14T13:00:28;12.30;;;4.47;;
71108;SDS011;59614;51.012;-1.648;2023-06-14T13:02:55;24.00;;;5.43;;
71108;SDS011;59614;51.012;-1.648;2023-06-14T13:05:21;11.98;;;4.68;;
71108;SDS011;59614;51.012;-1.648;2023-06-14T13:07:47;11.30;;;4.78;;
71108;SDS011;59614;51.012;-1.648;2023-06-14T13:10:12;11.80;;;4.78;;
71108;SDS011;59614;51.012;-1.648;2023-06-14T13:12:38;8.00;;;4.87;;
71108;SDS011;59614;51.012;-1.648;2023-06-14T13:15:03;9.05;;;5.00;;
71108;SDS011;59614;51.012;-1.648;2023-06-14T13:17:29;8.97;;;4.57;;
71108;SDS011;59614;51.012;-1.648;2023-06-14T13:19:54;11.50;;;5.20;;
71108;SDS011;59614;51.012;-1.648;2023-06-14T13:22:20;8.77;;;4.90;;
71108;SDS011;59614;51.012;-1.648;2023-06-14T13:24:45;15.10;;;5.57;;
71108;SDS011;59614;51.012;-1.648;2023-06-14T13:27:11;10.30;;;5.00;;
71108;SDS011;59614;51.012;-1.648;2023-06-14T13:29:39;8.20;;;4.65;;
71108;SDS011;59614;51.012;-1.648;2023-06-14T13:32:04;9.13;;;5.00;;
71108;SDS011;59614;51.012;-1.648;2023-06-14T13:34:30;6.60;;;4.40;;
71108;SDS011;59614;51.012;-1.648;2023-06-14T13:36:55;8.93;;;4.77;;
71108;SDS011;59614;51.012;-1.648;2023-06-14T13:39:20;10.47;;;4.60;;
71108;SDS011;59614;51.012;-1.648;2023-06-14T13:41:46;9.63;;;5.13;;
71108;SDS011;59614;51.012;-1.648;2023-06-14T13:44:11;11.13;;;4.83;;
71108;SDS011;59614;51.012;-1.648;2023-06-14T13:46:39;10.70;;;5.10;;
71108;SDS011;59614;51.012;-1.648;2023-06-14T13:49:05;10.03;;;4.60;;
71108;SDS011;59614;51.012;-1.648;2023-06-14T13:51:31;10.10;;;5.00;;
71108;SDS011;59614;51.012;-1.648;2023-06-14T13:53:57;11.77;;;5.10;;
71108;SDS011;59614;51.012;-1.648;2023-06-14T13:56:22;15.13;;;5.57;;
71108;SDS011;59614;51.012;-1.648;2023-06-14T13:58:49;9.18;;;4.75;;
71108;SDS011;59614;51.012;-1.648;2023-06-14T14:01:14;10.30;;;4.70;;
71108;SDS011;59614;51.012;-1.648;2023-06-14T14:03:40;11.23;;;4.90;;
71108;SDS011;59614;51.012;-1.648;2023-06-14T14:06:05;12.38;;;5.70;;
71108;SDS011;59614;51.012;-1.648;2023-06-14T14:08:32;9.38;;;5.00;;
71108;SDS011;59614;51.012;-1.648;2023-06-14T14:10:57;10.77;;;5.20;;
71108;SDS011;59614;51.012;-1.648;2023-06-14T14:13:23;12.98;;;5.28;;
71108;SDS011;59614;51.012;-1.648;2023-06-14T14:15:49;12.27;;;5.15;;
71108;SDS011;59614;51.012;-1.648;2023-06-14T14:18:15;7.43;;;5.10;;
71108;SDS011;59614;51.012;-1.648;2023-06-14T14:20:41;7.40;;;4.70;;
71108;SDS011;59614;51.012;-1.648;2023-06-14T14:23:06;10.30;;;5.40;;
71108;SDS011;59614;51.012;-1.648;2023-06-14T14:25:32;11.80;;;4.50;;
71108;SDS011;59614;51.012;-1.648;2023-06-14T14:27:57;9.07;;;4.77;;
71108;SDS011;59614;51.012;-1.648;2023-06-14T14:30:22;10.43;;;5.03;;
71108;SDS011;59614;51.012;-1.648;2023-06-14T14:32:49;12.10;;;4.83;;
71108;SDS011;59614;51.012;-1.648;2023-06-14T14:35:16;7.20;;;4.68;;
71108;SDS011;59614;51.012;-1.648;2023-06-14T14:37:42;7.05;;;4.75;;
71108;SDS011;59614;51.012;-1.648;2023-06-14T14:40:08;7.60;;;4.90;;
71108;SDS011;59614;51.012;-1.648;2023-06-14T14:42:35;11.80;;;4.85;;
71108;SDS011;59614;51.012;-1.648;2023-06-14T14:45:01;9.70;;;4.72;;
71108;SDS011;59614;51.012;-1.648;2023-06-14T14:47:26;9.23;;;4.70;;
71108;SDS011;59614;51.012;-1.648;2023-06-14T14:49:51;7.53;;;4.50;;
71108;SDS011;59614;51.012;-1.648;2023-06-14T14:52:17;12.17;;;4.77;;
71108;SDS011;59614;51.012;-1.648;2023-06-14T14:54:42;11.87;;;4.80;;
71108;SDS011;59614;51.012;-1.648;2023-06-14T14:57:08;10.10;;;5.47;;
71108;SDS011;59614;51.012;-1.648;2023-06-14T14:59:33;8.00;;;4.27;;
71108;SDS011;59614;51.012;-1.648;2023-06-14T15:01:59;12.33;;;4.77;;